Overview Statistics Trail Chart Weather Telemetry Raw packets
 

This is the latest recevied weather packets stored in our database for station/object WL7CLI. If no packets are shown the sender has not sent any weather packets the latest 10 day(s).

<< 78 79 80 81 82 83 84 >>
Time Temp. Humidity Pressure Rain* Wind** Luminosity Snow
1787941001 28.89° C 50% 1019 hPa 0 mm - - -
1787940914 28.89° C 50% 1019 hPa 0 mm - - -
1787939913 28.89° C 51% 1020.6 hPa 0 mm - - -
1787939801 28.33° C 50% 1019.6 hPa 0 mm - - -
1787939704 28.33° C 50% 1019.6 hPa 0 mm - - -
1787938600 28.33° C 52% 1019.7 hPa 0 mm - - -
1787938503 28.33° C 51% 1019.7 hPa 0 mm - - -
1787938083 28.33° C 50% 1020.9 hPa 0 mm - - -
1787937400 28.33° C 51% 1019.8 hPa 0 mm - - -
1787937305 28.33° C 50% 1019.8 hPa 0 mm - - -
1787936313 27.78° C 54% 1021.1 hPa 0 mm - - -
1787936200 27.78° C 53% 1020 hPa 0 mm - - -
1787936105 27.78° C 50% 1020 hPa 0 mm - - -
1787934999 27.22° C 58% 1020.1 hPa 0 mm - - -
1787934904 27.22° C 59% 1020.1 hPa 0 mm - - -
1787934483 26.67° C 62% 1021.3 hPa 0 mm - - -
1787933799 26.67° C 60% 1020.2 hPa 0 mm - - -
1787933706 26.67° C 61% 1020.3 hPa 0 mm - - -
1787932713 26.11° C 66% 1021.5 hPa 0 mm - - -
1787932601 26.11° C 67% 1020.5 hPa 0 mm - - -
1787932504 26.11° C 66% 1020.5 hPa 0 mm - - -
1787931399 25.56° C 68% 1020.5 hPa 0 mm - - -
1787931304 25.56° C 67% 1020.5 hPa 0 mm - - -
1787930883 25° C 69% 1021.6 hPa 0 mm - - -
1787930199 23.89° C 73% 1020.6 hPa 0 mm - - -

* Rain latest hour (hover to see other rain measurements)
** Current wind speed in m/s (hover to see current wind gust speed)